sensor_id;sensor_type;location;lat;lon;timestamp;pressure;altitude;pressure_sealevel;temperature;humidity
50933;BME280;36921;49.006;9.292;2023-12-04T00:01:33;99017.66;;;-4.71;100.00
50933;BME280;36921;49.006;9.292;2023-12-04T00:03:59;99002.19;;;-4.77;100.00
50933;BME280;36921;49.006;9.292;2023-12-04T00:06:24;99016.19;;;-4.63;100.00
50933;BME280;36921;49.006;9.292;2023-12-04T00:08:49;98999.06;;;-4.70;100.00
50933;BME280;36921;49.006;9.292;2023-12-04T00:11:14;99002.00;;;-4.62;100.00
50933;BME280;36921;49.006;9.292;2023-12-04T00:13:40;99001.84;;;-4.58;100.00
50933;BME280;36921;49.006;9.292;2023-12-04T00:16:05;98981.09;;;-4.65;100.00
50933;BME280;36921;49.006;9.292;2023-12-04T00:18:31;98980.69;;;-4.71;100.00
50933;BME280;36921;49.006;9.292;2023-12-04T00:20:56;98981.31;;;-4.68;100.00
50933;BME280;36921;49.006;9.292;2023-12-04T00:23:21;98981.09;;;-4.65;100.00
50933;BME280;36921;49.006;9.292;2023-12-04T00:25:47;98980.03;;;-4.75;100.00
50933;BME280;36921;49.006;9.292;2023-12-04T00:28:12;98977.38;;;-4.75;100.00
50933;BME280;36921;49.006;9.292;2023-12-04T00:30:37;98973.16;;;-4.77;100.00
50933;BME280;36921;49.006;9.292;2023-12-04T00:33:03;98962.81;;;-4.80;100.00
50933;BME280;36921;49.006;9.292;2023-12-04T00:35:28;98982.97;;;-4.79;100.00
50933;BME280;36921;49.006;9.292;2023-12-04T00:37:53;98951.47;;;-4.95;100.00
50933;BME280;36921;49.006;9.292;2023-12-04T00:40:18;98972.41;;;-4.79;100.00
50933;BME280;36921;49.006;9.292;2023-12-04T00:42:44;98946.88;;;-4.92;100.00
50933;BME280;36921;49.006;9.292;2023-12-04T00:45:09;98949.81;;;-4.96;100.00
50933;BME280;36921;49.006;9.292;2023-12-04T00:47:34;98953.53;;;-4.86;100.00
50933;BME280;36921;49.006;9.292;2023-12-04T00:49:59;98944.03;;;-4.89;100.00
50933;BME280;36921;49.006;9.292;2023-12-04T00:52:25;98947.38;;;-4.99;100.00
50933;BME280;36921;49.006;9.292;2023-12-04T00:54:50;98930.97;;;-5.17;100.00
50933;BME280;36921;49.006;9.292;2023-12-04T00:57:15;98951.56;;;-5.10;100.00
50933;BME280;36921;49.006;9.292;2023-12-04T00:59:41;98941.72;;;-5.20;100.00
50933;BME280;36921;49.006;9.292;2023-12-04T01:02:06;98958.63;;;-5.10;100.00
50933;BME280;36921;49.006;9.292;2023-12-04T01:04:32;98922.22;;;-5.18;100.00
50933;BME280;36921;49.006;9.292;2023-12-04T01:06:57;98934.09;;;-5.25;100.00
50933;BME280;36921;49.006;9.292;2023-12-04T01:09:22;98942.91;;;-5.12;100.00
50933;BME280;36921;49.006;9.292;2023-12-04T01:11:52;98939.13;;;-5.08;100.00
50933;BME280;36921;49.006;9.292;2023-12-04T01:14:17;98935.00;;;-5.12;100.00
50933;BME280;36921;49.006;9.292;2023-12-04T01:16:42;98935.66;;;-5.08;100.00
50933;BME280;36921;49.006;9.292;2023-12-04T01:19:07;98925.09;;;-5.08;100.00
50933;BME280;36921;49.006;9.292;2023-12-04T01:21:33;98920.16;;;-5.27;100.00
50933;BME280;36921;49.006;9.292;2023-12-04T01:23:58;98915.44;;;-5.22;100.00
50933;BME280;36921;49.006;9.292;2023-12-04T01:26:23;98915.94;;;-5.30;100.00
50933;BME280;36921;49.006;9.292;2023-12-04T01:28:48;98919.28;;;-5.13;100.00
50933;BME280;36921;49.006;9.292;2023-12-04T01:31:14;98893.47;;;-5.35;100.00
50933;BME280;36921;49.006;9.292;2023-12-04T01:33:39;98925.69;;;-5.17;100.00
50933;BME280;36921;49.006;9.292;2023-12-04T01:36:05;98928.97;;;-5.14;100.00
50933;BME280;36921;49.006;9.292;2023-12-04T01:38:30;98918.94;;;-5.09;100.00
50933;BME280;36921;49.006;9.292;2023-12-04T01:40:56;98919.41;;;-5.02;100.00
50933;BME280;36921;49.006;9.292;2023-12-04T01:43:21;98917.50;;;-5.00;100.00
50933;BME280;36921;49.006;9.292;2023-12-04T01:45:46;98910.13;;;-4.95;100.00
50933;BME280;36921;49.006;9.292;2023-12-04T01:48:13;98910.00;;;-4.93;100.00
50933;BME280;36921;49.006;9.292;2023-12-04T01:50:39;98902.22;;;-4.95;100.00
50933;BME280;36921;49.006;9.292;2023-12-04T01:53:04;98895.16;;;-4.94;100.00
50933;BME280;36921;49.006;9.292;2023-12-04T01:55:32;98897.03;;;-4.96;100.00
50933;BME280;36921;49.006;9.292;2023-12-04T01:57:58;98891.53;;;-4.93;100.00
50933;BME280;36921;49.006;9.292;2023-12-04T02:00:25;98904.66;;;-4.92;100.00
50933;BME280;36921;49.006;9.292;2023-12-04T02:02:50;98898.94;;;-4.86;100.00
50933;BME280;36921;49.006;9.292;2023-12-04T02:05:16;98895.16;;;-4.94;100.00
50933;BME280;36921;49.006;9.292;2023-12-04T02:07:42;98890.72;;;-4.94;100.00
50933;BME280;36921;49.006;9.292;2023-12-04T02:10:08;98896.44;;;-4.87;100.00
50933;BME280;36921;49.006;9.292;2023-12-04T02:12:34;98883.63;;;-4.93;100.00
50933;BME280;36921;49.006;9.292;2023-12-04T02:15:00;98889.66;;;-4.91;100.00
50933;BME280;36921;49.006;9.292;2023-12-04T02:17:26;98884.47;;;-5.05;100.00
50933;BME280;36921;49.006;9.292;2023-12-04T02:19:53;98890.16;;;-5.12;100.00
50933;BME280;36921;49.006;9.292;2023-12-04T02:22:18;98889.75;;;-5.05;100.00
50933;BME280;36921;49.006;9.292;2023-12-04T02:24:45;98889.63;;;-5.04;100.00
50933;BME280;36921;49.006;9.292;2023-12-04T02:27:38;98871.47;;;-5.09;100.00
50933;BME280;36921;49.006;9.292;2023-12-04T02:30:08;98879.91;;;-5.16;100.00
50933;BME280;36921;49.006;9.292;2023-12-04T02:32:41;98876.75;;;-5.09;100.00
50933;BME280;36921;49.006;9.292;2023-12-04T02:35:09;98857.75;;;-5.26;100.00
50933;BME280;36921;49.006;9.292;2023-12-04T02:37:34;98867.03;;;-5.21;100.00
50933;BME280;36921;49.006;9.292;2023-12-04T02:40:01;98863.78;;;-5.12;100.00
50933;BME280;36921;49.006;9.292;2023-12-04T02:42:27;98847.94;;;-5.12;100.00
50933;BME280;36921;49.006;9.292;2023-12-04T02:44:52;98854.81;;;-5.09;100.00
50933;BME280;36921;49.006;9.292;2023-12-04T02:47:18;98860.09;;;-5.09;100.00
50933;BME280;36921;49.006;9.292;2023-12-04T02:49:43;98847.00;;;-5.11;100.00
50933;BME280;36921;49.006;9.292;2023-12-04T02:52:09;98844.88;;;-5.18;100.00
50933;BME280;36921;49.006;9.292;2023-12-04T02:54:34;98833.69;;;-5.22;100.00
50933;BME280;36921;49.006;9.292;2023-12-04T02:56:59;98840.22;;;-5.28;100.00
50933;BME280;36921;49.006;9.292;2023-12-04T02:59:25;98842.00;;;-5.28;100.00
50933;BME280;36921;49.006;9.292;2023-12-04T03:01:50;98836.22;;;-5.33;100.00
50933;BME280;36921;49.006;9.292;2023-12-04T03:04:15;98834.06;;;-5.41;100.00
50933;BME280;36921;49.006;9.292;2023-12-04T03:06:40;98837.56;;;-5.40;100.00
50933;BME280;36921;49.006;9.292;2023-12-04T03:09:06;98824.16;;;-5.50;100.00
50933;BME280;36921;49.006;9.292;2023-12-04T03:11:31;98819.19;;;-5.55;100.00
50933;BME280;36921;49.006;9.292;2023-12-04T03:13:57;98812.63;;;-5.62;100.00
50933;BME280;36921;49.006;9.292;2023-12-04T03:16:22;98807.66;;;-5.66;100.00
50933;BME280;36921;49.006;9.292;2023-12-04T03:18:48;98799.03;;;-5.68;100.00
50933;BME280;36921;49.006;9.292;2023-12-04T03:21:13;98801.31;;;-5.64;100.00
50933;BME280;36921;49.006;9.292;2023-12-04T03:23:38;98797.59;;;-5.74;100.00
50933;BME280;36921;49.006;9.292;2023-12-04T03:26:04;98792.25;;;-5.73;100.00
50933;BME280;36921;49.006;9.292;2023-12-04T03:28:29;98790.25;;;-5.69;100.00
50933;BME280;36921;49.006;9.292;2023-12-04T03:30:54;98792.78;;;-5.67;100.00
50933;BME280;36921;49.006;9.292;2023-12-04T03:33:20;98792.47;;;-5.76;100.00
50933;BME280;36921;49.006;9.292;2023-12-04T03:35:45;98789.53;;;-5.71;100.00
50933;BME280;36921;49.006;9.292;2023-12-04T03:38:10;98777.06;;;-5.69;100.00
50933;BME280;36921;49.006;9.292;2023-12-04T03:40:36;98781.97;;;-5.63;100.00
50933;BME280;36921;49.006;9.292;2023-12-04T03:43:01;98785.44;;;-5.62;100.00
50933;BME280;36921;49.006;9.292;2023-12-04T03:45:26;98778.66;;;-5.66;100.00
50933;BME280;36921;49.006;9.292;2023-12-04T03:47:51;98772.13;;;-5.61;100.00
50933;BME280;36921;49.006;9.292;2023-12-04T03:50:17;98769.31;;;-5.58;100.00
50933;BME280;36921;49.006;9.292;2023-12-04T03:52:42;98761.91;;;-5.65;100.00
50933;BME280;36921;49.006;9.292;2023-12-04T03:55:08;98750.13;;;-5.60;100.00
50933;BME280;36921;49.006;9.292;2023-12-04T03:57:33;98735.13;;;-5.59;100.00
50933;BME280;36921;49.006;9.292;2023-12-04T03:59:59;98740.31;;;-5.58;100.00
50933;BME280;36921;49.006;9.292;2023-12-04T04:02:24;98745.38;;;-5.55;100.00
50933;BME280;36921;49.006;9.292;2023-12-04T04:04:49;98733.34;;;-5.59;100.00
50933;BME280;36921;49.006;9.292;2023-12-04T04:07:16;98727.97;;;-5.57;100.00
50933;BME280;36921;49.006;9.292;2023-12-04T04:09:42;98719.31;;;-5.59;100.00
50933;BME280;36921;49.006;9.292;2023-12-04T04:12:09;98729.88;;;-5.46;100.00
50933;BME280;36921;49.006;9.292;2023-12-04T04:14:34;98722.59;;;-5.56;100.00
50933;BME280;36921;49.006;9.292;2023-12-04T04:16:59;98730.50;;;-5.56;100.00
50933;BME280;36921;49.006;9.292;2023-12-04T04:19:25;98729.56;;;-5.55;100.00
50933;BME280;36921;49.006;9.292;2023-12-04T04:21:50;98720.69;;;-5.54;100.00
50933;BME280;36921;49.006;9.292;2023-12-04T04:24:15;98724.59;;;-5.59;100.00
50933;BME280;36921;49.006;9.292;2023-12-04T04:26:40;98716.59;;;-5.58;100.00
50933;BME280;36921;49.006;9.292;2023-12-04T04:29:06;98722.06;;;-5.61;100.00
50933;BME280;36921;49.006;9.292;2023-12-04T04:31:31;98732.19;;;-5.55;100.00
50933;BME280;36921;49.006;9.292;2023-12-04T04:33:56;98715.19;;;-5.63;100.00
50933;BME280;36921;49.006;9.292;2023-12-04T04:36:22;98720.81;;;-5.55;100.00
50933;BME280;36921;49.006;9.292;2023-12-04T04:38:47;98720.16;;;-5.59;100.00
50933;BME280;36921;49.006;9.292;2023-12-04T04:41:13;98717.44;;;-5.57;100.00
50933;BME280;36921;49.006;9.292;2023-12-04T04:43:40;98715.75;;;-5.45;100.00
50933;BME280;36921;49.006;9.292;2023-12-04T04:46:05;98720.81;;;-5.42;100.00
50933;BME280;36921;49.006;9.292;2023-12-04T04:48:30;98723.25;;;-5.26;100.00
50933;BME280;36921;49.006;9.292;2023-12-04T04:50:56;98736.84;;;-5.20;100.00
50933;BME280;36921;49.006;9.292;2023-12-04T04:53:21;98723.13;;;-5.25;100.00
50933;BME280;36921;49.006;9.292;2023-12-04T04:55:47;98724.19;;;-5.28;100.00
50933;BME280;36921;49.006;9.292;2023-12-04T04:58:12;98712.19;;;-5.32;100.00
50933;BME280;36921;49.006;9.292;2023-12-04T05:00:37;98731.47;;;-5.31;100.00
50933;BME280;36921;49.006;9.292;2023-12-04T05:03:02;98713.44;;;-5.37;100.00
50933;BME280;36921;49.006;9.292;2023-12-04T05:05:28;98719.22;;;-5.32;100.00
50933;BME280;36921;49.006;9.292;2023-12-04T05:07:53;98717.03;;;-5.38;100.00
50933;BME280;36921;49.006;9.292;2023-12-04T05:10:18;98711.31;;;-5.32;100.00
50933;BME280;36921;49.006;9.292;2023-12-04T05:12:43;98717.13;;;-5.27;100.00
50933;BME280;36921;49.006;9.292;2023-12-04T05:15:09;98717.66;;;-5.35;100.00
50933;BME280;36921;49.006;9.292;2023-12-04T05:17:34;98707.00;;;-5.46;100.00
50933;BME280;36921;49.006;9.292;2023-12-04T05:20:00;98711.53;;;-5.35;100.00
50933;BME280;36921;49.006;9.292;2023-12-04T05:22:25;98705.72;;;-5.40;100.00
50933;BME280;36921;49.006;9.292;2023-12-04T05:24:50;98695.41;;;-5.43;100.00
50933;BME280;36921;49.006;9.292;2023-12-04T05:27:15;98710.69;;;-5.36;100.00
50933;BME280;36921;49.006;9.292;2023-12-04T05:29:41;98704.16;;;-5.30;100.00
50933;BME280;36921;49.006;9.292;2023-12-04T05:32:06;98702.69;;;-5.34;100.00
50933;BME280;36921;49.006;9.292;2023-12-04T05:34:31;98693.91;;;-5.35;100.00
50933;BME280;36921;49.006;9.292;2023-12-04T05:36:57;98691.28;;;-5.35;100.00
50933;BME280;36921;49.006;9.292;2023-12-04T05:39:22;98681.78;;;-5.37;100.00
50933;BME280;36921;49.006;9.292;2023-12-04T05:41:47;98670.84;;;-5.31;100.00
50933;BME280;36921;49.006;9.292;2023-12-04T05:44:13;98661.97;;;-5.30;100.00
50933;BME280;36921;49.006;9.292;2023-12-04T05:46:39;98666.59;;;-5.21;100.00
50933;BME280;36921;49.006;9.292;2023-12-04T05:49:04;98656.78;;;-5.19;100.00
50933;BME280;36921;49.006;9.292;2023-12-04T05:51:29;98642.97;;;-5.22;100.00
50933;BME280;36921;49.006;9.292;2023-12-04T05:53:54;98645.59;;;-5.22;100.00
50933;BME280;36921;49.006;9.292;2023-12-04T05:56:20;98633.25;;;-5.09;100.00
50933;BME280;36921;49.006;9.292;2023-12-04T05:58:45;98649.25;;;-4.99;100.00
50933;BME280;36921;49.006;9.292;2023-12-04T06:01:10;98652.22;;;-5.04;100.00
50933;BME280;36921;49.006;9.292;2023-12-04T06:03:36;98661.94;;;-5.04;100.00
50933;BME280;36921;49.006;9.292;2023-12-04T06:06:01;98655.63;;;-5.15;100.00
50933;BME280;36921;49.006;9.292;2023-12-04T06:08:26;98665.31;;;-5.02;100.00
50933;BME280;36921;49.006;9.292;2023-12-04T06:10:52;98649.50;;;-5.15;100.00
50933;BME280;36921;49.006;9.292;2023-12-04T06:13:17;98663.00;;;-5.20;100.00
50933;BME280;36921;49.006;9.292;2023-12-04T06:15:42;98642.22;;;-5.24;100.00
50933;BME280;36921;49.006;9.292;2023-12-04T06:18:26;98663.53;;;-5.15;100.00
50933;BME280;36921;49.006;9.292;2023-12-04T06:20:52;98648.38;;;-5.24;100.00
50933;BME280;36921;49.006;9.292;2023-12-04T06:23:17;98657.50;;;-5.17;100.00
50933;BME280;36921;49.006;9.292;2023-12-04T06:25:43;98649.09;;;-5.22;100.00
50933;BME280;36921;49.006;9.292;2023-12-04T06:28:09;98614.75;;;-5.46;100.00
50933;BME280;36921;49.006;9.292;2023-12-04T06:30:36;98652.97;;;-5.15;100.00
50933;BME280;36921;49.006;9.292;2023-12-04T06:33:02;98655.06;;;-5.07;100.00
50933;BME280;36921;49.006;9.292;2023-12-04T06:35:28;98661.72;;;-5.01;100.00
50933;BME280;36921;49.006;9.292;2023-12-04T06:40:29;98667.50;;;-4.96;100.00
50933;BME280;36921;49.006;9.292;2023-12-04T06:42:54;98678.56;;;-4.91;100.00
50933;BME280;36921;49.006;9.292;2023-12-04T06:45:20;98671.63;;;-4.92;100.00
50933;BME280;36921;49.006;9.292;2023-12-04T06:47:45;98659.78;;;-4.87;100.00
50933;BME280;36921;49.006;9.292;2023-12-04T06:50:12;98659.75;;;-4.74;100.00
50933;BME280;36921;49.006;9.292;2023-12-04T06:52:38;98651.41;;;-4.80;100.00
50933;BME280;36921;49.006;9.292;2023-12-04T06:55:03;98666.59;;;-4.71;100.00
50933;BME280;36921;49.006;9.292;2023-12-04T06:57:28;98643.13;;;-4.87;100.00
50933;BME280;36921;49.006;9.292;2023-12-04T06:59:54;98646.28;;;-4.82;100.00
50933;BME280;36921;49.006;9.292;2023-12-04T07:02:19;98648.97;;;-4.71;100.00
50933;BME280;36921;49.006;9.292;2023-12-04T07:04:45;98616.94;;;-4.90;100.00
50933;BME280;36921;49.006;9.292;2023-12-04T07:07:10;98607.56;;;-4.94;100.00
50933;BME280;36921;49.006;9.292;2023-12-04T07:09:41;98645.38;;;-4.70;100.00
50933;BME280;36921;49.006;9.292;2023-12-04T07:12:06;98629.97;;;-4.76;100.00
50933;BME280;36921;49.006;9.292;2023-12-04T07:14:32;98620.94;;;-4.60;100.00
50933;BME280;36921;49.006;9.292;2023-12-04T07:16:58;98634.09;;;-4.48;100.00
50933;BME280;36921;49.006;9.292;2023-12-04T07:19:24;98606.69;;;-4.58;100.00
50933;BME280;36921;49.006;9.292;2023-12-04T07:21:49;98628.34;;;-4.42;100.00
50933;BME280;36921;49.006;9.292;2023-12-04T07:24:15;98607.84;;;-4.38;100.00
50933;BME280;36921;49.006;9.292;2023-12-04T07:26:41;98600.88;;;-4.39;100.00
50933;BME280;36921;49.006;9.292;2023-12-04T07:29:07;98627.75;;;-4.10;100.00
50933;BME280;36921;49.006;9.292;2023-12-04T07:31:32;98611.44;;;-4.04;100.00
50933;BME280;36921;49.006;9.292;2023-12-04T07:33:58;98612.56;;;-3.84;100.00
50933;BME280;36921;49.006;9.292;2023-12-04T07:36:25;98589.03;;;-3.76;100.00
50933;BME280;36921;49.006;9.292;2023-12-04T07:38:51;98579.19;;;-3.85;100.00
50933;BME280;36921;49.006;9.292;2023-12-04T07:41:20;98568.22;;;-3.80;100.00
50933;BME280;36921;49.006;9.292;2023-12-04T07:43:46;98568.13;;;-3.79;100.00
50933;BME280;36921;49.006;9.292;2023-12-04T07:46:11;98572.56;;;-3.79;100.00
50933;BME280;36921;49.006;9.292;2023-12-04T07:48:37;98580.50;;;-3.57;100.00
50933;BME280;36921;49.006;9.292;2023-12-04T07:51:02;98593.63;;;-3.33;100.00
50933;BME280;36921;49.006;9.292;2023-12-04T07:53:28;98601.53;;;-3.10;100.00
50933;BME280;36921;49.006;9.292;2023-12-04T07:55:53;98584.69;;;-2.98;100.00
50933;BME280;36921;49.006;9.292;2023-12-04T07:58:18;98559.16;;;-2.99;100.00
50933;BME280;36921;49.006;9.292;2023-12-04T08:00:44;98573.88;;;-2.62;100.00
50933;BME280;36921;49.006;9.292;2023-12-04T08:03:09;98571.09;;;-2.61;100.00
50933;BME280;36921;49.006;9.292;2023-12-04T08:05:35;98550.44;;;-2.67;100.00
50933;BME280;36921;49.006;9.292;2023-12-04T08:08:00;98563.63;;;-2.56;100.00
50933;BME280;36921;49.006;9.292;2023-12-04T08:10:25;98561.69;;;-2.54;100.00
50933;BME280;36921;49.006;9.292;2023-12-04T08:12:51;98558.59;;;-2.59;100.00
50933;BME280;36921;49.006;9.292;2023-12-04T08:15:16;98551.59;;;-2.60;100.00
50933;BME280;36921;49.006;9.292;2023-12-04T08:17:42;98523.25;;;-2.48;100.00
50933;BME280;36921;49.006;9.292;2023-12-04T08:20:07;98534.50;;;-2.35;100.00
50933;BME280;36921;49.006;9.292;2023-12-04T08:22:38;98520.25;;;-2.23;100.00
50933;BME280;36921;49.006;9.292;2023-12-04T08:25:04;98510.59;;;-2.24;100.00
50933;BME280;36921;49.006;9.292;2023-12-04T08:27:32;98506.53;;;-2.28;100.00
50933;BME280;36921;49.006;9.292;2023-12-04T08:29:57;98507.47;;;-2.29;100.00
50933;BME280;36921;49.006;9.292;2023-12-04T08:32:22;98519.25;;;-2.22;100.00
50933;BME280;36921;49.006;9.292;2023-12-04T08:34:48;98527.13;;;-2.31;100.00
50933;BME280;36921;49.006;9.292;2023-12-04T08:37:13;98523.75;;;-2.33;100.00
50933;BME280;36921;49.006;9.292;2023-12-04T08:39:39;98525.66;;;-2.24;100.00
50933;BME280;36921;49.006;9.292;2023-12-04T08:42:04;98535.78;;;-1.87;100.00
50933;BME280;36921;49.006;9.292;2023-12-04T08:44:30;98519.41;;;-1.92;100.00
50933;BME280;36921;49.006;9.292;2023-12-04T08:46:55;98517.00;;;-1.74;100.00
50933;BME280;36921;49.006;9.292;2023-12-04T08:49:22;98517.56;;;-1.71;100.00
50933;BME280;36921;49.006;9.292;2023-12-04T08:51:48;98504.13;;;-1.79;100.00
50933;BME280;36921;49.006;9.292;2023-12-04T08:54:13;98500.44;;;-1.67;100.00
50933;BME280;36921;49.006;9.292;2023-12-04T08:56:38;98503.53;;;-1.62;100.00
50933;BME280;36921;49.006;9.292;2023-12-04T08:59:04;98492.63;;;-1.59;100.00
50933;BME280;36921;49.006;9.292;2023-12-04T09:01:29;98515.09;;;-1.63;100.00
50933;BME280;36921;49.006;9.292;2023-12-04T09:03:55;98498.28;;;-1.73;100.00
50933;BME280;36921;49.006;9.292;2023-12-04T09:06:21;98508.03;;;-1.83;100.00
50933;BME280;36921;49.006;9.292;2023-12-04T09:08:46;98507.91;;;-1.82;100.00
50933;BME280;36921;49.006;9.292;2023-12-04T09:11:11;98491.69;;;-1.88;100.00
50933;BME280;36921;49.006;9.292;2023-12-04T09:13:37;98509.16;;;-1.76;100.00
50933;BME280;36921;49.006;9.292;2023-12-04T09:16:03;98519.84;;;-1.66;100.00
50933;BME280;36921;49.006;9.292;2023-12-04T09:18:29;98519.78;;;-1.76;100.00
50933;BME280;36921;49.006;9.292;2023-12-04T09:20:54;98520.81;;;-1.67;100.00
50933;BME280;36921;49.006;9.292;2023-12-04T09:23:20;98525.63;;;-1.42;100.00
50933;BME280;36921;49.006;9.292;2023-12-04T09:25:45;98516.28;;;-1.46;100.00
50933;BME280;36921;49.006;9.292;2023-12-04T09:28:11;98532.75;;;-1.42;100.00
50933;BME280;36921;49.006;9.292;2023-12-04T09:30:36;98539.16;;;-1.55;100.00
50933;BME280;36921;49.006;9.292;2023-12-04T09:33:02;98534.38;;;-1.61;100.00
50933;BME280;36921;49.006;9.292;2023-12-04T09:35:28;98536.31;;;-1.63;100.00
50933;BME280;36921;49.006;9.292;2023-12-04T09:37:53;98531.88;;;-1.52;100.00
50933;BME280;36921;49.006;9.292;2023-12-04T09:40:19;98517.50;;;-1.50;100.00
50933;BME280;36921;49.006;9.292;2023-12-04T09:42:45;98527.56;;;-1.53;100.00
50933;BME280;36921;49.006;9.292;2023-12-04T09:45:11;98521.19;;;-1.41;100.00
50933;BME280;36921;49.006;9.292;2023-12-04T09:47:37;98513.53;;;-1.35;100.00
50933;BME280;36921;49.006;9.292;2023-12-04T09:50:03;98514.94;;;-1.30;100.00
50933;BME280;36921;49.006;9.292;2023-12-04T09:52:30;98516.66;;;-1.20;100.00
50933;BME280;36921;49.006;9.292;2023-12-04T09:54:56;98514.00;;;-1.00;100.00
50933;BME280;36921;49.006;9.292;2023-12-04T09:57:23;98508.16;;;-1.04;100.00
50933;BME280;36921;49.006;9.292;2023-12-04T09:59:51;98498.50;;;-0.95;100.00
50933;BME280;36921;49.006;9.292;2023-12-04T10:02:17;98506.63;;;-0.87;100.00
50933;BME280;36921;49.006;9.292;2023-12-04T10:04:42;98503.00;;;-0.86;100.00
50933;BME280;36921;49.006;9.292;2023-12-04T10:07:08;98492.66;;;-0.70;100.00
50933;BME280;36921;49.006;9.292;2023-12-04T10:09:33;98502.31;;;-0.69;100.00
50933;BME280;36921;49.006;9.292;2023-12-04T10:11:59;98494.91;;;-0.65;100.00
50933;BME280;36921;49.006;9.292;2023-12-04T10:14:24;98506.34;;;-0.94;100.00
50933;BME280;36921;49.006;9.292;2023-12-04T10:16:51;98496.25;;;-1.00;100.00
50933;BME280;36921;49.006;9.292;2023-12-04T10:19:24;98489.28;;;-1.01;100.00
50933;BME280;36921;49.006;9.292;2023-12-04T10:21:51;98473.63;;;-1.04;100.00
50933;BME280;36921;49.006;9.292;2023-12-04T10:24:36;98483.81;;;-1.09;100.00
50933;BME280;36921;49.006;9.292;2023-12-04T10:27:03;98482.97;;;-1.00;100.00
50933;BME280;36921;49.006;9.292;2023-12-04T10:29:45;98475.88;;;-0.90;100.00
50933;BME280;36921;49.006;9.292;2023-12-04T10:32:12;98471.97;;;-0.66;100.00
50933;BME280;36921;49.006;9.292;2023-12-04T10:34:37;98471.97;;;-0.56;100.00
50933;BME280;36921;49.006;9.292;2023-12-04T10:37:04;98466.34;;;-0.34;100.00
50933;BME280;36921;49.006;9.292;2023-12-04T10:39:31;98465.31;;;-0.13;100.00
50933;BME280;36921;49.006;9.292;2023-12-04T10:42:01;98453.13;;;-0.06;100.00
50933;BME280;36921;49.006;9.292;2023-12-04T10:44:27;98450.56;;;0.02;100.00
50933;BME280;36921;49.006;9.292;2023-12-04T10:46:55;98454.22;;;0.01;100.00
50933;BME280;36921;49.006;9.292;2023-12-04T10:49:26;98450.63;;;-0.08;100.00
50933;BME280;36921;49.006;9.292;2023-12-04T10:51:51;98446.69;;;-0.13;100.00
50933;BME280;36921;49.006;9.292;2023-12-04T10:54:18;98471.38;;;-0.50;100.00
50933;BME280;36921;49.006;9.292;2023-12-04T10:56:44;98473.63;;;-0.55;100.00
50933;BME280;36921;49.006;9.292;2023-12-04T10:59:11;98464.00;;;-0.47;100.00
50933;BME280;36921;49.006;9.292;2023-12-04T11:01:42;98456.16;;;-0.38;100.00
50933;BME280;36921;49.006;9.292;2023-12-04T11:04:15;98459.06;;;-0.32;100.00
50933;BME280;36921;49.006;9.292;2023-12-04T11:06:43;98454.56;;;-0.22;100.00
50933;BME280;36921;49.006;9.292;2023-12-04T11:09:10;98443.09;;;-0.32;100.00
50933;BME280;36921;49.006;9.292;2023-12-04T11:11:40;98418.91;;;-0.29;100.00
50933;BME280;36921;49.006;9.292;2023-12-04T11:14:09;98411.91;;;-0.30;100.00
50933;BME280;36921;49.006;9.292;2023-12-04T11:16:53;98414.03;;;-0.33;100.00
50933;BME280;36921;49.006;9.292;2023-12-04T11:20:21;98408.94;;;-0.17;100.00
50933;BME280;36921;49.006;9.292;2023-12-04T11:22:42;98393.28;;;-0.20;100.00
50933;BME280;36921;49.006;9.292;2023-12-04T11:25:08;98395.94;;;0.08;100.00
50933;BME280;36921;49.006;9.292;2023-12-04T11:27:34;98378.47;;;0.05;100.00
50933;BME280;36921;49.006;9.292;2023-12-04T11:30:01;98366.16;;;0.04;100.00
50933;BME280;36921;49.006;9.292;2023-12-04T11:32:28;98360.84;;;0.04;100.00
50933;BME280;36921;49.006;9.292;2023-12-04T11:34:59;98350.59;;;0.09;100.00
50933;BME280;36921;49.006;9.292;2023-12-04T11:37:27;98368.34;;;0.18;100.00
50933;BME280;36921;49.006;9.292;2023-12-04T11:39:53;98359.81;;;0.15;100.00
50933;BME280;36921;49.006;9.292;2023-12-04T11:42:19;98347.50;;;0.14;100.00
50933;BME280;36921;49.006;9.292;2023-12-04T11:44:48;98357.63;;;0.28;100.00
50933;BME280;36921;49.006;9.292;2023-12-04T11:47:13;98344.88;;;0.32;100.00
50933;BME280;36921;49.006;9.292;2023-12-04T11:49:39;98343.44;;;0.37;100.00
50933;BME280;36921;49.006;9.292;2023-12-04T11:52:06;98360.19;;;0.48;100.00
50933;BME280;36921;49.006;9.292;2023-12-04T11:54:58;98352.03;;;0.49;100.00
50933;BME280;36921;49.006;9.292;2023-12-04T11:57:25;98352.34;;;0.46;100.00
50933;BME280;36921;49.006;9.292;2023-12-04T11:59:52;98351.44;;;0.55;100.00
50933;BME280;36921;49.006;9.292;2023-12-04T12:02:17;98341.56;;;0.65;100.00
50933;BME280;36921;49.006;9.292;2023-12-04T12:04:43;98331.91;;;0.82;100.00
50933;BME280;36921;49.006;9.292;2023-12-04T12:07:10;98327.00;;;0.96;100.00
50933;BME280;36921;49.006;9.292;2023-12-04T12:09:36;98312.97;;;1.12;100.00
50933;BME280;36921;49.006;9.292;2023-12-04T12:12:05;98314.19;;;1.17;100.00
50933;BME280;36921;49.006;9.292;2023-12-04T12:14:31;98304.25;;;1.27;100.00
50933;BME280;36921;49.006;9.292;2023-12-04T12:16:59;98292.13;;;1.33;100.00
50933;BME280;36921;49.006;9.292;2023-12-04T12:19:25;98286.06;;;1.23;100.00
50933;BME280;36921;49.006;9.292;2023-12-04T12:21:50;98269.25;;;0.96;100.00
50933;BME280;36921;49.006;9.292;2023-12-04T12:24:17;98263.81;;;0.80;100.00
50933;BME280;36921;49.006;9.292;2023-12-04T12:26:44;98263.09;;;0.96;100.00
50933;BME280;36921;49.006;9.292;2023-12-04T12:29:11;98250.56;;;0.88;100.00
50933;BME280;36921;49.006;9.292;2023-12-04T12:31:36;98253.28;;;0.78;100.00
50933;BME280;36921;49.006;9.292;2023-12-04T12:34:02;98259.97;;;0.56;100.00
50933;BME280;36921;49.006;9.292;2023-12-04T12:36:28;98248.84;;;0.61;100.00
50933;BME280;36921;49.006;9.292;2023-12-04T12:38:54;98249.69;;;0.61;100.00
50933;BME280;36921;49.006;9.292;2023-12-04T12:41:19;98241.31;;;0.56;100.00
50933;BME280;36921;49.006;9.292;2023-12-04T12:43:45;98238.28;;;0.51;100.00
50933;BME280;36921;49.006;9.292;2023-12-04T12:46:12;98226.34;;;0.55;100.00
50933;BME280;36921;49.006;9.292;2023-12-04T12:48:37;98219.13;;;0.65;100.00